Time;durP1;ratioP1;P1;durP2;ratioP2;P2;SDS_P1;SDS_P2;PMS_P1;PMS_P2;Temp;Humidity;BMP_temperature;BMP_pressure;BME280_temperature;BME280_humidity;BME280_pressure;Samples;Min_cycle;Max_cycle;Signal;HPM_P1;HPM_P2
2022/03/16 00:02:23;;;;;;;110.88;64.43;;;5.60;99.90;;;;;;5064814;28;20083;-77
2022/03/16 00:04:53;;;;;;;109.85;66.25;;;5.70;99.90;;;;;;5065666;28;20060;-77
2022/03/16 00:07:20;;;;;;;105.65;68.03;;;5.60;99.90;;;;;;5080414;28;20079;-76
2022/03/16 00:09:46;;;;;;;105.75;66.18;;;5.60;99.90;;;;;;5087697;28;20087;-76
2022/03/16 00:12:13;;;;;;;99.30;66.43;;;5.60;99.90;;;;;;5086528;28;20131;-79
2022/03/16 00:14:40;;;;;;;110.55;66.78;;;5.60;99.90;;;;;;5070759;28;20520;-77
2022/03/16 00:17:07;;;;;;;98.53;65.25;;;5.50;99.90;;;;;;5083746;28;20053;-76
2022/03/16 00:19:33;;;;;;;97.60;64.80;;;5.50;99.90;;;;;;5083442;28;20126;-77
2022/03/16 00:22:01;;;;;;;100.65;62.88;;;5.50;99.90;;;;;;5069003;28;20112;-78
2022/03/16 00:24:27;;;;;;;103.20;63.72;;;5.40;99.90;;;;;;5084113;28;20048;-78
2022/03/16 00:26:53;;;;;;;104.18;64.65;;;5.40;99.90;;;;;;5083188;28;20051;-78
2022/03/16 00:29:19;;;;;;;115.18;68.63;;;5.30;99.90;;;;;;5070251;28;20044;-77
2022/03/16 00:31:45;;;;;;;102.68;62.67;;;5.30;99.90;;;;;;5087883;28;20451;-78
2022/03/16 00:34:11;;;;;;;109.07;64.85;;;5.20;99.90;;;;;;5052499;28;20085;-77
2022/03/16 00:36:37;;;;;;;107.28;65.65;;;5.20;99.90;;;;;;5087315;28;20043;-78
2022/03/16 00:39:04;;;;;;;120.82;68.20;;;5.10;99.90;;;;;;5068674;28;20150;-77
2022/03/16 00:41:30;;;;;;;124.13;69.57;;;5.00;99.90;;;;;;5070144;28;20406;-77
2022/03/16 00:43:56;;;;;;;120.78;73.07;;;5.00;99.90;;;;;;5053720;28;20508;-77
2022/03/16 00:46:22;;;;;;;126.65;74.05;;;5.00;99.90;;;;;;5050616;28;20052;-78
2022/03/16 00:48:47;;;;;;;129.93;76.93;;;5.00;99.90;;;;;;5085205;28;20039;-78
2022/03/16 00:51:13;;;;;;;117.15;73.45;;;5.10;99.90;;;;;;5067258;28;20047;-78
2022/03/16 00:53:40;;;;;;;127.15;73.47;;;5.00;99.90;;;;;;5081743;28;20043;-78
2022/03/16 00:56:08;;;;;;;123.45;73.30;;;5.10;99.90;;;;;;5066619;28;20054;-78
2022/03/16 00:58:34;;;;;;;125.60;74.50;;;5.10;99.90;;;;;;5083184;28;20036;-78
2022/03/16 01:01:01;;;;;;;123.95;74.95;;;5.10;99.90;;;;;;5052686;28;20048;-79
2022/03/16 01:03:28;;;;;;;137.02;79.00;;;5.10;99.90;;;;;;5036502;28;20032;-78
2022/03/16 01:05:53;;;;;;;127.93;74.05;;;5.10;99.90;;;;;;5068672;28;20051;-78
2022/03/16 01:08:19;;;;;;;116.93;72.30;;;5.10;99.90;;;;;;5078483;28;20075;-78
2022/03/16 01:10:46;;;;;;;156.13;77.40;;;5.10;99.90;;;;;;5065389;28;20107;-78
2022/03/16 01:13:11;;;;;;;156.90;81.05;;;5.10;99.90;;;;;;5066074;28;20048;-78
2022/03/16 01:15:37;;;;;;;122.90;71.32;;;5.00;99.90;;;;;;5064768;28;20036;-78
2022/03/16 01:18:03;;;;;;;132.27;76.47;;;5.10;99.90;;;;;;5050911;28;20389;-78
2022/03/16 01:20:29;;;;;;;166.30;86.57;;;5.10;99.90;;;;;;5047267;28;20510;-79
2022/03/16 01:22:54;;;;;;;103.18;68.43;;;5.10;99.90;;;;;;5066710;28;20692;-78
2022/03/16 01:25:20;;;;;;;93.85;62.75;;;5.00;99.90;;;;;;5041671;28;20267;-78
2022/03/16 01:27:46;;;;;;;83.25;58.97;;;5.10;99.90;;;;;;5063556;28;20062;-78
2022/03/16 01:30:15;;;;;;;84.40;57.42;;;5.10;99.90;;;;;;5051678;28;20108;-78
2022/03/16 01:32:42;;;;;;;87.70;57.75;;;5.00;99.90;;;;;;5064743;28;20066;-78
2022/03/16 01:35:09;;;;;;;92.47;61.83;;;5.00;99.90;;;;;;5066120;28;20545;-79
2022/03/16 01:37:36;;;;;;;94.30;61.95;;;5.00;99.90;;;;;;5065977;28;20044;-77
2022/03/16 01:40:06;;;;;;;99.75;65.45;;;4.90;99.90;;;;;;5047887;28;20036;-79
2022/03/16 01:42:33;;;;;;;93.57;62.70;;;5.00;99.90;;;;;;5044824;28;20443;-79
2022/03/16 01:44:59;;;;;;;177.82;79.18;;;4.90;99.90;;;;;;5050584;28;20036;-78
2022/03/16 01:47:26;;;;;;;78.75;52.20;;;4.90;99.90;;;;;;5082538;28;20040;-82
2022/03/16 01:49:55;;;;;;;242.38;96.53;;;4.90;99.90;;;;;;5065813;28;20036;-82
2022/03/16 01:52:23;;;;;;;76.97;53.58;;;4.70;99.90;;;;;;5047046;28;20043;-83
2022/03/16 01:54:49;;;;;;;385.63;82.32;;;4.70;99.90;;;;;;5063250;28;20044;-82
2022/03/16 01:57:16;;;;;;;781.63;145.77;;;4.60;99.90;;;;;;5062630;28;20048;-82
2022/03/16 01:59:42;;;;;;;110.50;66.63;;;4.40;99.90;;;;;;5066440;28;20144;-81
2022/03/16 02:02:09;;;;;;;223.07;95.13;;;4.40;99.90;;;;;;5063625;28;20660;-83
2022/03/16 02:04:35;;;;;;;154.00;80.83;;;4.40;99.90;;;;;;5065071;28;20155;-82
2022/03/16 02:07:03;;;;;;;165.35;83.40;;;4.40;99.90;;;;;;5063415;28;20040;-83
2022/03/16 02:09:29;;;;;;;130.03;76.60;;;4.40;99.90;;;;;;5065319;28;20518;-83
2022/03/16 02:11:56;;;;;;;262.73;108.63;;;4.30;99.90;;;;;;5082823;28;20259;-83
2022/03/16 02:14:22;;;;;;;409.17;123.00;;;4.30;99.90;;;;;;5063905;28;20055;-84
2022/03/16 02:16:49;;;;;;;112.00;69.35;;;4.30;99.90;;;;;;5081352;28;20063;-83
2022/03/16 02:19:15;;;;;;;115.55;75.30;;;4.30;99.90;;;;;;5082200;28;20048;-83
2022/03/16 02:21:43;;;;;;;117.63;72.35;;;4.30;99.90;;;;;;5065383;28;20040;-83
2022/03/16 02:24:09;;;;;;;183.67;94.67;;;4.40;99.90;;;;;;5065508;28;20062;-84
2022/03/16 02:26:36;;;;;;;130.10;80.35;;;4.40;99.90;;;;;;5077783;28;20273;-83
2022/03/16 02:29:02;;;;;;;133.33;80.07;;;4.40;99.90;;;;;;5082169;28;20119;-83
2022/03/16 02:31:28;;;;;;;160.07;88.53;;;4.50;99.90;;;;;;5046787;28;20051;-83
2022/03/16 02:33:54;;;;;;;147.70;86.53;;;4.50;99.90;;;;;;5079434;28;20043;-83
2022/03/16 02:36:20;;;;;;;114.65;74.80;;;4.50;99.90;;;;;;5062699;28;20054;-83
2022/03/16 02:38:46;;;;;;;142.23;80.75;;;4.40;99.90;;;;;;5049175;28;20131;-84
2022/03/16 02:41:13;;;;;;;113.22;68.50;;;4.40;99.90;;;;;;5065398;28;20044;-83
2022/03/16 02:43:39;;;;;;;131.60;76.85;;;4.40;99.90;;;;;;5082043;28;20071;-81
2022/03/16 02:46:05;;;;;;;114.35;73.57;;;4.30;99.90;;;;;;5065336;28;20059;-82
2022/03/16 02:48:32;;;;;;;130.13;78.40;;;4.30;99.90;;;;;;5063837;28;20043;-82
2022/03/16 02:50:58;;;;;;;142.15;80.07;;;4.40;99.90;;;;;;5082279;28;20494;-82
2022/03/16 02:53:24;;;;;;;137.45;77.53;;;4.30;99.90;;;;;;5077717;28;20070;-81
2022/03/16 02:55:50;;;;;;;84.15;58.60;;;4.20;99.90;;;;;;5077935;28;20051;-84
2022/03/16 02:58:17;;;;;;;98.87;65.03;;;4.10;99.90;;;;;;5061642;28;20659;-81
2022/03/16 03:00:43;;;;;;;96.77;63.07;;;4.00;99.90;;;;;;5079011;28;20044;-82
2022/03/16 03:03:09;;;;;;;460.77;128.87;;;4.00;99.90;;;;;;5065006;28;20044;-83
2022/03/16 03:05:35;;;;;;;85.40;62.73;;;3.90;99.90;;;;;;5063631;28;20044;-82
2022/03/16 03:08:00;;;;;;;71.77;55.13;;;3.90;99.90;;;;;;5060062;28;20274;-82
2022/03/16 03:10:27;;;;;;;159.50;63.80;;;3.80;99.90;;;;;;5048864;28;20060;-82
2022/03/16 03:12:53;;;;;;;143.73;61.05;;;3.80;99.90;;;;;;5067227;28;20048;-83
2022/03/16 03:15:22;;;;;;;112.73;65.43;;;3.70;99.90;;;;;;5049709;28;20062;-83
2022/03/16 03:17:48;;;;;;;73.70;56.17;;;3.60;99.90;;;;;;5050223;28;20040;-83
2022/03/16 03:20:13;;;;;;;57.63;50.13;;;3.60;99.90;;;;;;5066698;28;20048;-83
2022/03/16 03:22:40;;;;;;;78.23;57.43;;;3.60;99.90;;;;;;5083506;28;20400;-83
2022/03/16 03:25:14;;;;;;;138.30;75.70;;;3.50;99.90;;;;;;5062787;28;20044;-83
2022/03/16 03:27:40;;;;;;;73.60;55.47;;;3.50;99.90;;;;;;5067594;28;20065;-83
2022/03/16 03:30:07;;;;;;;121.83;68.20;;;3.50;99.90;;;;;;5066803;28;20063;-83
2022/03/16 03:32:33;;;;;;;229.38;61.60;;;3.60;99.90;;;;;;5083092;28;20056;-83
2022/03/16 03:34:59;;;;;;;85.33;51.47;;;3.50;99.90;;;;;;5050338;28;20051;-82
2022/03/16 03:37:29;;;;;;;77.97;52.83;;;3.40;99.90;;;;;;5082533;28;20043;-83
2022/03/16 03:39:56;;;;;;;93.68;52.58;;;3.40;99.90;;;;;;5033831;28;20101;-83
2022/03/16 03:42:22;;;;;;;72.10;48.67;;;3.30;99.90;;;;;;5083474;28;20086;-83
2022/03/16 03:44:48;;;;;;;158.03;59.63;;;3.20;99.90;;;;;;5063459;28;20052;-82
2022/03/16 03:47:14;;;;;;;171.63;67.20;;;3.10;99.90;;;;;;5029934;28;20041;-83
2022/03/16 03:49:41;;;;;;;72.60;58.37;;;3.10;99.90;;;;;;5063199;28;20040;-83
2022/03/16 03:52:08;;;;;;;85.13;60.93;;;3.10;99.90;;;;;;5051074;28;20046;-83
2022/03/16 03:54:34;;;;;;;117.20;63.13;;;3.10;99.90;;;;;;5067018;28;20048;-83
2022/03/16 03:57:00;;;;;;;69.57;57.10;;;3.10;99.90;;;;;;5064581;28;20041;-83
2022/03/16 03:59:26;;;;;;;63.07;53.03;;;3.10;99.90;;;;;;5050399;28;20544;-83
2022/03/16 04:01:52;;;;;;;81.40;61.37;;;3.00;99.90;;;;;;5043108;28;20048;-83
2022/03/16 04:04:18;;;;;;;71.30;57.53;;;3.00;99.90;;;;;;5033070;28;20060;-83
2022/03/16 04:06:44;;;;;;;58.00;48.63;;;3.10;99.90;;;;;;5048817;28;20036;-83
2022/03/16 04:09:10;;;;;;;54.17;47.80;;;3.10;99.90;;;;;;5066343;28;20189;-83
2022/03/16 04:11:36;;;;;;;55.13;47.90;;;3.20;99.90;;;;;;5046514;28;20110;-83
2022/03/16 04:14:03;;;;;;;61.70;50.30;;;3.10;99.90;;;;;;5063508;28;20044;-82
2022/03/16 04:16:28;;;;;;;59.37;51.57;;;3.20;99.90;;;;;;5065848;28;20498;-83
2022/03/16 04:18:54;;;;;;;65.10;52.70;;;3.20;99.90;;;;;;5064406;28;20048;-82
2022/03/16 04:21:23;;;;;;;73.47;57.73;;;3.20;99.90;;;;;;5050274;28;20134;-83
2022/03/16 04:23:49;;;;;;;78.27;61.30;;;3.20;99.90;;;;;;5049846;28;20044;-82
2022/03/16 04:26:16;;;;;;;76.20;58.17;;;3.30;99.90;;;;;;5049755;28;20462;-82
2022/03/16 04:28:45;;;;;;;98.40;65.20;;;3.20;99.90;;;;;;5062808;28;20135;-83
2022/03/16 04:31:10;;;;;;;74.77;57.03;;;3.20;99.90;;;;;;5053057;28;20048;-83
2022/03/16 04:33:37;;;;;;;75.33;56.37;;;3.20;99.90;;;;;;5068978;28;20394;-83
2022/03/16 04:36:04;;;;;;;61.07;52.13;;;3.20;99.90;;;;;;5048613;28;20131;-83
2022/03/16 04:38:30;;;;;;;64.63;53.37;;;3.20;99.90;;;;;;5049090;28;20131;-83
2022/03/16 04:40:56;;;;;;;59.60;50.50;;;3.10;99.90;;;;;;5066007;28;20461;-83
2022/03/16 04:43:22;;;;;;;65.80;53.43;;;3.20;99.90;;;;;;5065255;28;20566;-83
2022/03/16 04:45:47;;;;;;;65.67;53.97;;;3.30;99.90;;;;;;5065515;28;20048;-83
2022/03/16 04:48:13;;;;;;;68.33;55.63;;;3.20;99.90;;;;;;5032015;28;20054;-83
2022/03/16 04:50:40;;;;;;;77.50;61.33;;;3.20;99.90;;;;;;5056125;28;20078;-83
2022/03/16 04:53:07;;;;;;;121.70;81.50;;;3.20;99.90;;;;;;5055114;28;20575;-83
2022/03/16 04:55:35;;;;;;;80.03;61.93;;;3.20;99.90;;;;;;5047754;28;20465;-83
2022/03/16 04:58:06;;;;;;;134.07;87.37;;;3.30;99.90;;;;;;5048753;28;20048;-83
2022/03/16 05:00:32;;;;;;;71.38;59.33;;;3.30;99.90;;;;;;5032259;28;20584;-84
2022/03/16 05:02:58;;;;;;;71.63;57.47;;;3.30;99.90;;;;;;5083823;28;20036;-83
2022/03/16 05:05:28;;;;;;;72.00;58.23;;;3.30;99.90;;;;;;5050806;28;20573;-83
2022/03/16 05:07:55;;;;;;;157.23;90.22;;;3.30;99.90;;;;;;5063562;28;20056;-77
2022/03/16 05:10:21;;;;;;;121.23;81.30;;;3.30;99.90;;;;;;5067328;28;20788;-76
2022/03/16 05:12:47;;;;;;;72.13;56.57;;;3.30;99.90;;;;;;5085169;28;20056;-76
2022/03/16 05:15:18;;;;;;;71.00;57.30;;;3.30;99.90;;;;;;5085254;28;20628;-77
2022/03/16 05:17:45;;;;;;;185.13;100.00;;;3.30;99.90;;;;;;5085032;28;20290;-77
2022/03/16 05:20:12;;;;;;;174.10;98.70;;;3.20;99.90;;;;;;5068533;28;20164;-77
2022/03/16 05:22:45;;;;;;;165.20;101.50;;;3.20;99.90;;;;;;5085250;28;20352;-77
2022/03/16 05:25:16;;;;;;;66.77;57.53;;;3.20;99.90;;;;;;5067063;28;20050;-77
2022/03/16 05:27:42;;;;;;;105.80;72.90;;;3.20;99.90;;;;;;5084889;28;20036;-76
2022/03/16 05:30:09;;;;;;;108.17;77.70;;;3.20;99.90;;;;;;5035647;28;20066;-77
2022/03/16 05:32:35;;;;;;;116.17;83.67;;;3.20;99.90;;;;;;5085248;28;20074;-82
2022/03/16 05:35:02;;;;;;;105.57;77.20;;;3.20;99.90;;;;;;5068868;28;20126;-83
2022/03/16 05:37:28;;;;;;;113.43;82.53;;;3.30;99.90;;;;;;5051542;28;20052;-81
2022/03/16 05:39:54;;;;;;;118.90;88.37;;;3.40;99.90;;;;;;5051456;28;20490;-83
2022/03/16 05:42:20;;;;;;;123.50;89.53;;;3.40;99.90;;;;;;5051786;28;20494;-82
2022/03/16 05:44:46;;;;;;;115.43;85.97;;;3.40;99.90;;;;;;5051774;28;20118;-82
2022/03/16 05:47:12;;;;;;;124.07;85.43;;;3.50;99.90;;;;;;5062641;28;20519;-82
2022/03/16 05:49:38;;;;;;;122.30;90.10;;;3.50;99.90;;;;;;5063918;28;20088;-83
2022/03/16 05:52:05;;;;;;;113.30;83.33;;;3.50;99.90;;;;;;5051367;28;20127;-83
2022/03/16 05:54:31;;;;;;;113.27;83.73;;;3.60;99.90;;;;;;5077117;28;20071;-83
2022/03/16 05:56:56;;;;;;;105.37;81.60;;;3.60;99.90;;;;;;5044710;28;20660;-83
2022/03/16 05:59:22;;;;;;;117.73;85.50;;;3.60;99.90;;;;;;5064980;28;20572;-82
2022/03/16 06:01:48;;;;;;;107.83;84.33;;;3.70;99.90;;;;;;5046534;28;20599;-83
2022/03/16 06:04:13;;;;;;;97.53;75.33;;;3.70;99.90;;;;;;5045692;28;20102;-76
2022/03/16 06:06:39;;;;;;;100.40;78.67;;;3.70;99.90;;;;;;5054766;28;20529;-77
2022/03/16 06:09:05;;;;;;;106.20;78.60;;;3.70;99.90;;;;;;5028079;28;20051;-77
2022/03/16 06:11:31;;;;;;;91.23;74.47;;;3.80;99.90;;;;;;5081434;28;20075;-77
2022/03/16 06:13:57;;;;;;;98.70;77.97;;;3.80;99.90;;;;;;5029442;28;20081;-77
2022/03/16 06:16:23;;;;;;;99.37;76.10;;;3.80;99.90;;;;;;5064111;28;20727;-77
2022/03/16 06:18:48;;;;;;;104.43;78.60;;;3.80;99.90;;;;;;5065325;28;20059;-77
2022/03/16 06:21:14;;;;;;;101.10;81.77;;;3.90;99.90;;;;;;5048811;28;20050;-77
2022/03/16 06:23:40;;;;;;;109.63;81.83;;;4.00;99.90;;;;;;5063899;28;20052;-77
2022/03/16 06:26:06;;;;;;;108.27;86.60;;;4.00;99.90;;;;;;5062725;28;20572;-77
2022/03/16 06:28:32;;;;;;;104.13;82.70;;;4.10;99.90;;;;;;5062015;28;20470;-77
2022/03/16 06:30:58;;;;;;;101.57;80.67;;;4.20;99.90;;;;;;5054365;28;20036;-77
2022/03/16 06:33:24;;;;;;;98.60;80.33;;;4.20;99.90;;;;;;5027263;28;20051;-79
2022/03/16 06:35:50;;;;;;;102.57;80.30;;;4.30;99.90;;;;;;5071584;28;20602;-80
2022/03/16 06:38:15;;;;;;;102.63;79.22;;;4.30;99.90;;;;;;5034159;28;20109;-80
2022/03/16 06:40:42;;;;;;;95.63;75.83;;;4.30;99.90;;;;;;5039478;28;20384;-81
2022/03/16 06:43:08;;;;;;;97.70;76.87;;;4.40;99.90;;;;;;5051326;28;20071;-82
2022/03/16 06:45:33;;;;;;;91.90;74.75;;;4.40;99.90;;;;;;5051169;28;20490;-82
2022/03/16 06:48:01;;;;;;;93.90;74.17;;;4.40;99.90;;;;;;5048696;28;20075;-81
2022/03/16 06:50:28;;;;;;;90.63;75.33;;;4.40;99.90;;;;;;5054543;28;20051;-82
2022/03/16 06:52:56;;;;;;;92.70;72.73;;;4.50;99.90;;;;;;5065970;28;20437;-82
2022/03/16 06:55:22;;;;;;;95.70;75.27;;;4.50;99.90;;;;;;5069235;28;20043;-79
2022/03/16 06:57:47;;;;;;;90.63;74.30;;;4.50;99.90;;;;;;5065072;28;20047;-80
2022/03/16 07:00:14;;;;;;;88.70;72.83;;;4.60;99.90;;;;;;5070826;28;20052;-76
2022/03/16 07:02:58;;;;;;;83.53;71.57;;;4.60;99.90;;;;;;5034817;28;20123;-78
2022/03/16 07:05:38;;;;;;;85.77;71.67;;;4.60;99.90;;;;;;5080333;28;20063;-78
2022/03/16 07:08:10;;;;;;;79.23;69.10;;;4.60;99.90;;;;;;5080281;28;20117;-76
2022/03/16 07:10:38;;;;;;;76.45;66.18;;;4.70;99.90;;;;;;5079391;28;20059;-77
2022/03/16 07:13:04;;;;;;;79.13;68.30;;;4.80;99.90;;;;;;5078848;28;20047;-77
2022/03/16 07:15:32;;;;;;;77.05;66.78;;;4.80;99.90;;;;;;5077537;28;20036;-77
2022/03/16 07:17:58;;;;;;;74.00;65.57;;;4.90;99.90;;;;;;5065305;28;20048;-77
2022/03/16 07:20:24;;;;;;;71.90;63.20;;;4.90;99.90;;;;;;5077263;28;20050;-78
2022/03/16 07:23:09;;;;;;;75.82;65.63;;;5.00;99.90;;;;;;5063294;28;20131;-78
2022/03/16 07:25:45;;;;;;;74.70;62.88;;;5.10;99.90;;;;;;5076154;28;20139;-76
2022/03/16 07:28:11;;;;;;;66.63;58.83;;;5.20;99.90;;;;;;5063800;28;20037;-77
2022/03/16 07:30:38;;;;;;;70.03;58.38;;;5.20;99.90;;;;;;5077592;28;20054;-79
2022/03/16 07:33:05;;;;;;;66.85;58.83;;;5.30;99.90;;;;;;5061903;28;20036;-77
2022/03/16 07:35:31;;;;;;;65.53;57.28;;;5.50;99.90;;;;;;5064564;28;20135;-77
2022/03/16 07:37:58;;;;;;;60.40;52.93;;;5.60;99.90;;;;;;5063111;28;20071;-77
2022/03/16 07:40:25;;;;;;;62.63;53.25;;;5.60;99.90;;;;;;5063873;28;20044;-78
2022/03/16 07:42:52;;;;;;;62.22;52.75;;;5.80;99.90;;;;;;5063150;28;20044;-78
2022/03/16 07:45:19;;;;;;;61.92;52.08;;;5.90;99.90;;;;;;5063338;28;20482;-77
2022/03/16 07:47:59;;;;;;;53.13;47.35;;;6.10;99.90;;;;;;5064750;28;20079;-77
2022/03/16 07:50:28;;;;;;;56.03;48.53;;;6.10;99.90;;;;;;5065111;28;20059;-78
2022/03/16 07:52:54;;;;;;;52.00;46.33;;;6.10;99.90;;;;;;5082770;28;20094;-78
2022/03/16 07:55:20;;;;;;;54.42;48.03;;;6.20;99.90;;;;;;5050787;28;20619;-78
2022/03/16 07:57:45;;;;;;;51.45;45.88;;;6.20;99.90;;;;;;5068116;28;20491;-79
2022/03/16 08:00:13;;;;;;;50.80;44.90;;;6.30;99.90;;;;;;5063521;28;20465;-78
2022/03/16 08:02:39;;;;;;;51.50;45.10;;;6.40;99.90;;;;;;5081991;28;20666;-78
2022/03/16 08:05:06;;;;;;;50.88;44.83;;;6.50;99.90;;;;;;5063731;28;20032;-78
2022/03/16 08:07:32;;;;;;;48.67;42.75;;;6.50;99.90;;;;;;5061338;28;20465;-78
2022/03/16 08:09:58;;;;;;;47.80;42.75;;;6.60;99.90;;;;;;5048713;28;20295;-77
2022/03/16 08:12:25;;;;;;;46.17;40.42;;;6.70;99.90;;;;;;5088572;28;20104;-75
2022/03/16 08:14:51;;;;;;;45.55;40.53;;;6.80;99.90;;;;;;5065600;28;20051;-77
2022/03/16 08:17:17;;;;;;;45.53;40.63;;;6.90;99.90;;;;;;5065152;28;20054;-76
2022/03/16 08:19:44;;;;;;;42.10;37.70;;;7.00;99.90;;;;;;5070401;28;20035;-77
2022/03/16 08:22:10;;;;;;;43.72;38.95;;;7.10;99.90;;;;;;5087525;28;20075;-76
2022/03/16 08:24:36;;;;;;;39.60;35.35;;;7.30;99.90;;;;;;5084507;28;20078;-76
2022/03/16 08:27:02;;;;;;;39.42;35.33;;;7.40;99.90;;;;;;5067179;28;20081;-76
2022/03/16 08:29:27;;;;;;;41.30;35.92;;;7.60;99.90;;;;;;5062377;28;20036;-78
2022/03/16 08:31:54;;;;;;;40.28;36.00;;;7.80;99.90;;;;;;5076575;28;20486;-78
2022/03/16 08:34:20;;;;;;;44.00;35.97;;;7.90;99.90;;;;;;5059987;28;20143;-79
2022/03/16 08:36:46;;;;;;;40.90;36.58;;;8.20;99.90;;;;;;5082182;28;20398;-78
2022/03/16 08:39:12;;;;;;;41.35;36.65;;;8.40;99.90;;;;;;5068590;28;20050;-79
2022/03/16 08:41:38;;;;;;;41.15;35.17;;;8.50;99.90;;;;;;5067939;28;20126;-78
2022/03/16 08:44:03;;;;;;;37.65;33.65;;;8.80;99.90;;;;;;5087380;28;20047;-78
2022/03/16 08:46:30;;;;;;;37.33;33.30;;;9.00;99.90;;;;;;5069176;28;20071;-77
2022/03/16 08:48:56;;;;;;;36.13;32.20;;;9.20;99.90;;;;;;5087478;28;20119;-77
2022/03/16 08:51:25;;;;;;;35.70;31.80;;;9.30;99.90;;;;;;5085144;28;20396;-76
2022/03/16 08:53:54;;;;;;;35.45;30.23;;;9.50;99.90;;;;;;5068674;28;20134;-77
2022/03/16 08:56:20;;;;;;;36.97;31.42;;;9.60;99.90;;;;;;5088188;28;20395;-75
2022/03/16 08:58:45;;;;;;;35.53;30.17;;;9.70;99.90;;;;;;5054322;28;20204;-76
2022/03/16 09:01:11;;;;;;;39.55;30.05;;;9.80;99.90;;;;;;5087633;28;20039;-76
2022/03/16 09:03:37;;;;;;;38.35;30.27;;;9.70;99.90;;;;;;5087675;28;20047;-72
2022/03/16 09:06:03;;;;;;;37.10;30.30;;;9.80;99.90;;;;;;5054121;28;20046;-76
2022/03/16 09:08:29;;;;;;;35.03;28.95;;;9.80;99.90;;;;;;5069781;28;20062;-77
2022/03/16 09:10:57;;;;;;;36.72;29.52;;;10.00;99.90;;;;;;5070013;28;20043;-75
2022/03/16 09:13:23;;;;;;;35.80;30.15;;;10.10;99.90;;;;;;5070733;28;20051;-72
2022/03/16 09:15:51;;;;;;;34.35;29.35;;;10.30;99.90;;;;;;5069984;28;20046;-76
2022/03/16 09:18:20;;;;;;;35.72;27.67;;;10.50;99.90;;;;;;5086260;28;20039;-73
2022/03/16 09:20:46;;;;;;;33.92;26.65;;;10.60;99.90;;;;;;5085393;28;20445;-76
2022/03/16 09:23:12;;;;;;;33.55;25.63;;;10.70;99.90;;;;;;5066426;28;20047;-76
2022/03/16 09:25:41;;;;;;;32.78;24.10;;;10.90;99.90;;;;;;5102084;28;20070;-79
2022/03/16 09:28:08;;;;;;;27.75;21.35;;;11.00;99.90;;;;;;5086397;28;20043;-74
2022/03/16 09:30:34;;;;;;;25.50;21.38;;;11.20;99.90;;;;;;5067868;28;20138;-77
2022/03/16 09:33:01;;;;;;;23.00;18.55;;;11.20;99.90;;;;;;5069902;28;20110;-79
2022/03/16 09:35:27;;;;;;;25.60;19.67;;;11.30;99.90;;;;;;5070114;28;20092;-83
2022/03/16 09:37:54;;;;;;;27.35;20.35;;;11.40;99.90;;;;;;5068059;28;20191;-80
2022/03/16 09:40:21;;;;;;;22.95;19.75;;;11.50;99.90;;;;;;5099213;28;20213;-80
2022/03/16 09:42:48;;;;;;;24.58;18.10;;;11.60;99.90;;;;;;5065413;28;20044;-77
2022/03/16 09:45:19;;;;;;;22.13;17.42;;;11.70;99.90;;;;;;5062572;28;20044;-79
2022/03/16 09:47:46;;;;;;;22.95;18.85;;;11.80;99.90;;;;;;5058649;28;20047;-80
2022/03/16 09:50:12;;;;;;;22.80;18.27;;;11.80;99.90;;;;;;5065850;28;20569;-75
2022/03/16 09:52:39;;;;;;;22.48;15.80;;;11.90;99.90;;;;;;5096981;28;20051;-74
2022/03/16 09:55:06;;;;;;;18.95;15.23;;;12.00;99.90;;;;;;5082122;28;20050;-75
2022/03/16 09:57:33;;;;;;;18.23;13.55;;;11.90;99.90;;;;;;5084858;28;20035;-76
2022/03/16 10:00:00;;;;;;;18.85;14.43;;;11.90;99.90;;;;;;5086578;28;20528;-74
2022/03/16 10:02:27;;;;;;;20.80;15.93;;;12.00;99.90;;;;;;5068092;28;20051;-78
2022/03/16 10:04:54;;;;;;;19.40;15.43;;;12.00;99.90;;;;;;5069751;28;20047;-77
2022/03/16 10:07:28;;;;;;;22.80;16.38;;;12.10;99.90;;;;;;5085246;28;20512;-75
2022/03/16 10:15:23;;;;;;;19.88;14.63;;;12.30;99.90;;;;;;5069918;28;20052;-74
2022/03/16 10:17:56;;;;;;;18.13;14.68;;;12.40;99.90;;;;;;5063468;28;20036;-76
2022/03/16 10:20:33;;;;;;;19.95;15.05;;;12.40;99.90;;;;;;5114951;27;20109;-80
2022/03/16 10:23:03;;;;;;;22.55;15.73;;;12.40;99.90;;;;;;5069240;28;20036;-76
2022/03/16 10:25:40;;;;;;;21.10;15.35;;;12.40;99.90;;;;;;5068544;28;20173;-76
2022/03/16 10:28:19;;;;;;;18.75;14.70;;;12.40;99.90;;;;;;5086001;28;20043;-78
2022/03/16 10:30:50;;;;;;;20.95;16.35;;;12.50;99.90;;;;;;5085470;28;20054;-73
2022/03/16 10:33:16;;;;;;;21.38;15.52;;;12.50;99.90;;;;;;5083897;28;20100;-76
2022/03/16 10:36:08;;;;;;;22.40;16.35;;;12.50;99.90;;;;;;5048135;28;20862;-75
2022/03/16 10:38:40;;;;;;;18.63;15.38;;;12.30;99.90;;;;;;5083130;28;20044;-75
2022/03/16 10:46:50;;;;;;;20.05;15.35;;;12.40;99.90;;;;;;5084127;28;20078;-75
2022/03/16 10:49:21;;;;;;;22.42;15.95;;;12.50;99.90;;;;;;5084757;28;20039;-80
2022/03/16 10:52:03;;;;;;;17.00;14.32;;;12.60;99.90;;;;;;5053148;28;20046;-77
2022/03/16 10:54:29;;;;;;;20.95;15.27;;;12.70;99.90;;;;;;5068231;28;20048;-80
2022/03/16 10:56:57;;;;;;;19.60;15.00;;;12.80;99.90;;;;;;5064519;28;20050;-77
2022/03/16 10:59:29;;;;;;;18.75;15.10;;;12.90;99.90;;;;;;5068327;28;20093;-74
2022/03/16 11:02:05;;;;;;;19.80;14.98;;;12.90;98.10;;;;;;5067345;28;20536;-80
2022/03/16 11:04:33;;;;;;;20.67;15.85;;;12.90;99.50;;;;;;5066231;28;20490;-80
2022/03/16 11:07:00;;;;;;;18.88;15.02;;;13.10;99.90;;;;;;5068347;28;20035;-75
2022/03/16 11:09:27;;;;;;;17.70;14.23;;;13.20;99.90;;;;;;5048308;28;20048;-75
2022/03/16 11:14:41;;;;;;;20.58;15.18;;;13.30;98.10;;;;;;5077240;28;20047;-79
2022/03/16 11:17:07;;;;;;;19.60;14.65;;;13.30;98.10;;;;;;5068331;28;20263;-76
2022/03/16 11:19:34;;;;;;;18.65;14.88;;;13.40;97.30;;;;;;5081934;28;20054;-78
2022/03/16 11:22:19;;;;;;;19.65;14.68;;;13.50;97.00;;;;;;5067323;28;20048;-73
2022/03/16 11:25:07;;;;;;;20.05;14.40;;;13.60;96.40;;;;;;5067843;28;20130;-73
2022/03/16 11:27:46;;;;;;;19.25;14.38;;;13.60;94.80;;;;;;5098975;28;20406;-74
2022/03/16 11:30:25;;;;;;;16.73;13.48;;;13.60;94.90;;;;;;5082867;28;20062;-74
2022/03/16 11:32:56;;;;;;;18.07;13.87;;;13.70;96.40;;;;;;5067203;28;20135;-72
2022/03/16 11:35:28;;;;;;;17.38;13.80;;;13.80;95.40;;;;;;5080942;28;20053;-75
2022/03/16 11:38:03;;;;;;;16.70;11.82;;;13.80;94.00;;;;;;5081132;28;20312;-73
2022/03/16 11:40:30;;;;;;;15.95;12.32;;;13.90;93.00;;;;;;5113260;27;20043;-80
2022/03/16 11:43:06;;;;;;;15.35;11.63;;;13.80;92.10;;;;;;5066280;28;20524;-77
2022/03/16 11:45:41;;;;;;;16.75;12.95;;;13.80;92.60;;;;;;5066888;28;20600;-78
2022/03/16 11:48:45;;;;;;;16.67;12.43;;;13.90;92.00;;;;;;5075861;28;20046;-79
2022/03/16 11:51:14;;;;;;;14.30;12.35;;;14.00;92.20;;;;;;5057028;28;20292;-75
2022/03/16 11:53:58;;;;;;;16.70;12.30;;;14.00;91.30;;;;;;5003583;28;20052;-75
2022/03/16 11:56:36;;;;;;;17.38;12.27;;;14.10;90.60;;;;;;5087290;28;20490;-75
2022/03/16 11:59:17;;;;;;;18.02;13.20;;;14.10;90.90;;;;;;5084648;28;20062;-75
2022/03/16 12:01:52;;;;;;;19.80;13.30;;;14.10;90.80;;;;;;5112373;27;20052;-76
2022/03/16 12:04:32;;;;;;;20.13;14.73;;;14.10;91.20;;;;;;5067029;28;20047;-77
2022/03/16 12:07:05;;;;;;;17.27;13.38;;;14.20;91.00;;;;;;5060416;28;20054;-76
2022/03/16 12:09:46;;;;;;;15.85;13.32;;;14.20;91.60;;;;;;5088433;28;20071;-76
2022/03/16 12:12:55;;;;;;;18.58;13.77;;;14.30;90.90;;;;;;5072813;28;20078;-75
2022/03/16 12:15:42;;;;;;;18.98;13.82;;;14.40;90.30;;;;;;5070808;28;20052;-76
2022/03/16 12:18:14;;;;;;;18.92;14.48;;;14.40;89.70;;;;;;5065594;28;20578;-79
2022/03/16 12:20:42;;;;;;;17.75;13.68;;;14.50;90.70;;;;;;5082380;28;20535;-76
2022/03/16 12:23:38;;;;;;;18.50;13.85;;;14.50;88.60;;;;;;5122645;27;20092;-80
2022/03/16 12:26:04;;;;;;;18.95;14.68;;;14.60;87.40;;;;;;5101082;28;20042;-75
2022/03/16 12:31:18;;;;;;;17.55;14.82;;;14.60;86.10;;;;;;5062358;28;20052;-79
2022/03/16 12:33:50;;;;;;;21.13;15.40;;;14.50;87.90;;;;;;5058342;28;20405;-79
2022/03/16 12:36:20;;;;;;;20.42;14.00;;;14.50;90.40;;;;;;5082451;28;20395;-79
2022/03/16 12:38:55;;;;;;;19.10;14.93;;;14.70;88.00;;;;;;5106300;27;20134;-78
2022/03/16 12:44:11;;;;;;;17.08;13.52;;;14.80;85.20;;;;;;5072318;28;20282;-75
2022/03/16 12:46:53;;;;;;;20.08;16.17;;;14.80;83.20;;;;;;5083051;28;20085;-77
2022/03/16 12:49:21;;;;;;;18.80;14.65;;;14.80;85.90;;;;;;5072501;28;20048;-74
2022/03/16 12:51:49;;;;;;;21.40;15.88;;;14.80;84.00;;;;;;5061953;28;20502;-73
2022/03/16 12:54:22;;;;;;;21.38;14.82;;;14.90;84.00;;;;;;5081115;28;20048;-75
2022/03/16 12:56:53;;;;;;;20.25;15.45;;;14.90;82.00;;;;;;5086125;28;20142;-74